Aviation Digital Data Service (ADDS)

Output produced by METARs form (1825 UTC 16 August 2018)
found at http://www.aviationweather.gov/adds/metars/
 
TAF MTCH 161100Z 1612/1712 05005KT 9000 FEW020 
     BECMG 1618/1622 0212G22KT 
     TEMPO 1702/1706 36010KT 
     FM171000 VRB02KT 8000 FEW016 SCT200
       
TAF MTPP 161100Z 1612/1712 09005KT 9000 FEW020 
     BECMG 1616/1620 10012G22KT 
     PROB30 
     TEMPO 1623/1704 28010KT 4500 TSRA SCT014CB SCT030 
     BECMG 1706/1710 VRB02KT 7000 NSW FEW016